Time;durP1;ratioP1;P1;durP2;ratioP2;P2;SDS_P1;SDS_P2;PMS_P1;PMS_P2;Temp;Humidity;BMP_temperature;BMP_pressure;BME280_temperature;BME280_humidity;BME280_pressure;Samples;Min_cycle;Max_cycle;Signal;HPM_P1;HPM_P2
2022/05/04 00:00:13;;;;;;;10.30;8.10;;;13.50;99.90;;;;;;5093455;28;20218;-68
2022/05/04 00:02:41;;;;;;;9.35;8.43;;;13.40;99.90;;;;;;5093793;28;20202;-67
2022/05/04 00:05:09;;;;;;;8.57;7.78;;;13.40;99.90;;;;;;5093894;28;20232;-67
2022/05/04 00:07:36;;;;;;;8.80;7.90;;;13.40;99.90;;;;;;5093740;28;20202;-69
2022/05/04 00:10:05;;;;;;;10.05;8.40;;;13.40;99.90;;;;;;5093477;28;20549;-69
2022/05/04 00:12:33;;;;;;;8.57;7.78;;;13.40;99.90;;;;;;5093532;28;20202;-68
2022/05/04 00:15:00;;;;;;;9.60;7.95;;;13.50;99.90;;;;;;5093513;28;20233;-68
2022/05/04 00:17:27;;;;;;;9.20;8.18;;;13.40;99.90;;;;;;5093327;28;20201;-68
2022/05/04 00:19:54;;;;;;;9.15;8.15;;;13.30;99.90;;;;;;5093081;28;20218;-68
2022/05/04 00:22:22;;;;;;;9.85;8.10;;;13.30;99.90;;;;;;5093514;28;20613;-68
2022/05/04 00:24:49;;;;;;;9.50;8.52;;;13.30;99.90;;;;;;5093923;28;20587;-67
2022/05/04 00:27:18;;;;;;;12.85;9.02;;;13.20;99.90;;;;;;5093439;28;20208;-67
2022/05/04 00:29:46;;;;;;;11.63;9.15;;;13.20;99.90;;;;;;5093162;28;20194;-68
2022/05/04 00:32:14;;;;;;;9.82;8.82;;;13.20;99.90;;;;;;5092964;28;20228;-68
2022/05/04 00:34:41;;;;;;;9.55;8.55;;;13.10;99.90;;;;;;5092639;28;20206;-68
2022/05/04 00:37:08;;;;;;;9.88;8.88;;;13.20;99.90;;;;;;5093240;28;20209;-69
2022/05/04 00:39:35;;;;;;;9.32;8.32;;;13.20;99.90;;;;;;5092894;28;20202;-68
2022/05/04 00:42:13;;;;;;;9.30;8.40;;;13.20;99.90;;;;;;5092635;28;20688;-67
2022/05/04 00:44:44;;;;;;;9.85;8.45;;;13.20;99.90;;;;;;5092883;28;20212;-68
2022/05/04 00:47:11;;;;;;;10.23;8.65;;;13.30;99.90;;;;;;5097221;28;20209;-67
2022/05/04 00:49:39;;;;;;;9.50;8.60;;;13.30;99.90;;;;;;5114436;28;20202;-66
2022/05/04 00:52:07;;;;;;;9.02;7.80;;;13.30;99.90;;;;;;5113624;28;20204;-68
2022/05/04 00:54:36;;;;;;;9.27;8.25;;;13.30;99.90;;;;;;5113148;28;20201;-67
2022/05/04 00:57:06;;;;;;;9.45;8.55;;;13.30;99.90;;;;;;5115277;28;20211;-66
2022/05/04 00:59:32;;;;;;;9.40;8.38;;;13.30;99.90;;;;;;5115120;28;20209;-66
2022/05/04 01:02:00;;;;;;;9.60;8.60;;;13.30;99.90;;;;;;5115566;28;20297;-66
2022/05/04 01:04:27;;;;;;;10.07;8.85;;;13.30;99.90;;;;;;5115301;28;20306;-66
2022/05/04 01:06:54;;;;;;;10.60;9.50;;;13.20;99.90;;;;;;5115105;28;20232;-66
2022/05/04 01:09:21;;;;;;;12.05;9.35;;;13.10;99.90;;;;;;5115338;28;20205;-66
2022/05/04 01:11:49;;;;;;;11.90;10.05;;;13.10;99.90;;;;;;5115328;28;20197;-66
2022/05/04 01:14:17;;;;;;;12.90;10.45;;;13.00;99.90;;;;;;5115427;28;20208;-66
2022/05/04 01:16:48;;;;;;;13.95;10.45;;;12.70;99.90;;;;;;5115056;28;20241;-66
2022/05/04 01:19:17;;;;;;;12.90;9.95;;;12.50;99.90;;;;;;5115504;28;20201;-66
2022/05/04 01:21:43;;;;;;;14.63;11.25;;;12.30;99.90;;;;;;5115101;28;20316;-66
2022/05/04 01:24:12;;;;;;;14.07;11.32;;;12.20;99.90;;;;;;5115428;28;20201;-66
2022/05/04 01:26:39;;;;;;;13.85;11.07;;;12.20;99.90;;;;;;5114923;28;20636;-66
2022/05/04 01:29:05;;;;;;;12.90;10.65;;;12.40;99.90;;;;;;5115126;28;20215;-66
2022/05/04 01:31:32;;;;;;;11.18;9.65;;;12.50;99.90;;;;;;5115351;28;20208;-67
2022/05/04 01:34:00;;;;;;;12.60;10.30;;;12.60;99.90;;;;;;5114665;28;20208;-66
2022/05/04 01:36:27;;;;;;;13.68;10.35;;;12.70;99.90;;;;;;5115020;28;20304;-66
2022/05/04 01:38:54;;;;;;;12.50;10.15;;;12.70;99.90;;;;;;5115014;28;20206;-67
2022/05/04 01:44:12;;;;;;;12.25;10.43;;;12.80;99.90;;;;;;5093860;28;20202;-66
2022/05/04 01:46:42;;;;;;;12.63;10.35;;;12.90;99.90;;;;;;5114587;28;20221;-66
2022/05/04 01:49:09;;;;;;;11.98;10.05;;;12.80;99.90;;;;;;5114751;28;20229;-67
2022/05/04 01:51:36;;;;;;;12.10;10.00;;;12.80;99.90;;;;;;5114681;28;20204;-67
2022/05/04 01:54:02;;;;;;;10.20;9.13;;;12.90;99.90;;;;;;5114554;28;20197;-67
2022/05/04 01:56:30;;;;;;;11.65;10.05;;;12.90;99.90;;;;;;5114541;28;20652;-67
2022/05/04 01:58:57;;;;;;;12.57;10.15;;;12.90;99.90;;;;;;5116914;28;20292;-66
2022/05/04 02:01:24;;;;;;;14.35;10.05;;;12.80;99.90;;;;;;5118681;28;20225;-67
2022/05/04 02:03:51;;;;;;;13.60;10.35;;;12.70;99.90;;;;;;5118457;28;20201;-66
2022/05/04 02:06:18;;;;;;;13.48;10.93;;;12.50;99.90;;;;;;5118571;28;20594;-66
2022/05/04 02:08:45;;;;;;;12.15;10.18;;;12.60;99.90;;;;;;5118543;28;20197;-66
2022/05/04 02:11:12;;;;;;;13.85;10.93;;;12.70;99.90;;;;;;5118790;28;20233;-67
2022/05/04 02:13:40;;;;;;;12.38;10.90;;;12.80;99.90;;;;;;5118406;28;20208;-66
2022/05/04 02:16:07;;;;;;;14.15;11.25;;;12.90;99.90;;;;;;5118025;28;20320;-67
2022/05/04 02:18:34;;;;;;;13.95;10.15;;;12.90;99.90;;;;;;5118480;28;20284;-66
2022/05/04 02:21:01;;;;;;;14.13;10.77;;;13.00;99.90;;;;;;5118204;28;20219;-67
2022/05/04 02:23:28;;;;;;;14.02;11.40;;;12.90;99.90;;;;;;5118627;28;20227;-67
2022/05/04 02:25:55;;;;;;;15.60;12.77;;;13.00;99.90;;;;;;5117861;28;20649;-66
2022/05/04 02:28:22;;;;;;;16.08;12.63;;;13.00;99.90;;;;;;5117164;28;20251;-66
2022/05/04 02:30:50;;;;;;;13.20;11.57;;;13.00;99.90;;;;;;5117172;28;20280;-66
2022/05/04 02:33:17;;;;;;;14.50;11.57;;;12.90;99.90;;;;;;5117126;28;20562;-66
2022/05/04 02:38:28;;;;;;;15.05;12.25;;;13.00;99.90;;;;;;5117083;28;20663;-66
2022/05/04 02:40:55;;;;;;;14.43;11.82;;;13.00;99.90;;;;;;5117135;28;20222;-66
2022/05/04 02:43:21;;;;;;;16.92;13.90;;;12.90;99.90;;;;;;5117920;28;20201;-66
2022/05/04 02:45:50;;;;;;;14.23;12.45;;;12.70;99.90;;;;;;5118120;28;20312;-66
2022/05/04 02:48:17;;;;;;;14.65;12.93;;;12.50;99.90;;;;;;5117575;28;20212;-66
2022/05/04 02:50:44;;;;;;;15.40;12.68;;;12.50;99.90;;;;;;5117826;28;20201;-66
2022/05/04 02:53:10;;;;;;;14.00;11.35;;;12.60;99.90;;;;;;5117484;28;20197;-66
2022/05/04 02:55:37;;;;;;;13.63;12.05;;;12.70;99.90;;;;;;5117532;28;20228;-66
2022/05/04 02:58:04;;;;;;;13.02;11.20;;;12.80;99.90;;;;;;5118081;28;20208;-66
2022/05/04 03:00:31;;;;;;;17.08;12.50;;;12.90;99.90;;;;;;5117179;28;20244;-66
2022/05/04 03:02:59;;;;;;;15.93;12.30;;;12.90;99.90;;;;;;5117543;28;20659;-67
2022/05/04 03:05:26;;;;;;;14.45;12.13;;;12.90;99.90;;;;;;5117441;28;20226;-66
2022/05/04 03:07:53;;;;;;;13.57;11.57;;;13.00;99.90;;;;;;5117938;28;20372;-66
2022/05/04 03:10:20;;;;;;;14.20;11.80;;;13.00;99.90;;;;;;5117607;28;20207;-66
2022/05/04 03:12:46;;;;;;;15.30;11.55;;;13.00;99.90;;;;;;5117345;28;20288;-66
2022/05/04 03:15:13;;;;;;;13.77;12.10;;;13.00;99.90;;;;;;5117105;28;20255;-67
2022/05/04 03:17:40;;;;;;;12.07;10.70;;;13.10;99.90;;;;;;5117551;28;20575;-68
2022/05/04 03:20:11;;;;;;;14.80;12.80;;;13.10;99.90;;;;;;5117370;28;20197;-67
2022/05/04 03:22:38;;;;;;;12.32;10.98;;;13.20;99.90;;;;;;5117593;28;20679;-66
2022/05/04 03:25:07;;;;;;;14.50;11.50;;;13.30;99.90;;;;;;5117430;28;20312;-67
2022/05/04 03:27:34;;;;;;;15.00;11.75;;;13.30;99.90;;;;;;5117172;28;20254;-67
2022/05/04 03:30:01;;;;;;;14.80;11.55;;;13.30;99.90;;;;;;5117278;28;20201;-66
2022/05/04 03:32:28;;;;;;;11.57;10.30;;;13.30;99.90;;;;;;5116986;28;20651;-66
2022/05/04 03:34:55;;;;;;;13.07;10.75;;;13.30;99.90;;;;;;5116934;28;20196;-66
2022/05/04 03:37:23;;;;;;;14.23;11.95;;;13.30;99.90;;;;;;5117139;28;20197;-67
2022/05/04 03:39:50;;;;;;;12.85;11.40;;;13.30;99.90;;;;;;5116907;28;20626;-67
2022/05/04 03:42:17;;;;;;;11.85;10.60;;;13.30;99.90;;;;;;5116940;28;20243;-66
2022/05/04 03:44:43;;;;;;;12.30;11.02;;;13.40;99.90;;;;;;5116488;28;20209;-66
2022/05/04 03:47:10;;;;;;;12.32;10.85;;;13.40;99.90;;;;;;5116693;28;20327;-66
2022/05/04 03:49:37;;;;;;;13.45;10.40;;;13.40;99.90;;;;;;5116645;28;20197;-67
2022/05/04 03:52:04;;;;;;;12.10;10.88;;;13.30;99.90;;;;;;5117030;28;20340;-66
2022/05/04 03:54:32;;;;;;;12.85;10.70;;;13.30;99.90;;;;;;5116514;28;20205;-66
2022/05/04 03:56:59;;;;;;;13.05;11.27;;;13.10;99.90;;;;;;5116717;28;20225;-66
2022/05/04 03:59:26;;;;;;;14.20;11.60;;;13.00;99.90;;;;;;5116500;28;20656;-66
2022/05/04 04:01:53;;;;;;;12.13;10.75;;;12.90;99.90;;;;;;5116695;28;20320;-67
2022/05/04 04:04:20;;;;;;;14.88;11.80;;;12.90;99.90;;;;;;5116399;28;20201;-67
2022/05/04 04:06:46;;;;;;;14.95;11.50;;;13.00;99.90;;;;;;5116381;28;20308;-67
2022/05/04 04:09:13;;;;;;;13.20;11.18;;;13.00;99.90;;;;;;5116305;28;20208;-67
2022/05/04 04:11:41;;;;;;;13.32;11.82;;;12.90;99.90;;;;;;5116523;28;20289;-67
2022/05/04 04:14:09;;;;;;;16.83;12.27;;;13.00;99.90;;;;;;5115971;28;20208;-67
2022/05/04 04:16:36;;;;;;;13.15;11.23;;;13.10;99.90;;;;;;5115815;28;20229;-66
2022/05/04 04:19:03;;;;;;;12.68;10.88;;;13.20;99.90;;;;;;5116176;28;20699;-66
2022/05/04 04:24:14;;;;;;;12.02;10.73;;;13.10;99.90;;;;;;5116188;28;20276;-67
2022/05/04 04:26:42;;;;;;;13.85;11.15;;;13.20;99.90;;;;;;5115941;28;20217;-66
2022/05/04 04:29:09;;;;;;;12.98;10.52;;;13.30;99.90;;;;;;5116088;28;20292;-67
2022/05/04 04:31:36;;;;;;;13.05;10.50;;;13.40;99.90;;;;;;5115874;28;20197;-67
2022/05/04 04:34:03;;;;;;;13.35;11.38;;;13.30;99.90;;;;;;5115994;28;20205;-66
2022/05/04 04:36:30;;;;;;;13.07;11.15;;;13.30;99.90;;;;;;5116015;28;20645;-66
2022/05/04 04:38:57;;;;;;;14.48;11.27;;;13.40;99.90;;;;;;5115910;28;20207;-66
2022/05/04 04:41:24;;;;;;;13.13;10.93;;;13.30;99.90;;;;;;5116047;28;20308;-66
2022/05/04 04:43:52;;;;;;;12.85;11.10;;;13.40;99.90;;;;;;5115420;28;20209;-67
2022/05/04 04:46:19;;;;;;;13.20;11.43;;;13.30;99.90;;;;;;5115768;28;20248;-67
2022/05/04 04:48:46;;;;;;;13.70;11.48;;;13.20;99.90;;;;;;5115632;28;20240;-66
2022/05/04 04:51:13;;;;;;;14.20;11.52;;;13.30;99.90;;;;;;5115647;28;20193;-66
2022/05/04 04:53:40;;;;;;;12.13;10.73;;;13.40;99.90;;;;;;5116115;28;20281;-66
2022/05/04 04:56:07;;;;;;;13.60;11.57;;;13.40;99.90;;;;;;5116134;28;20671;-66
2022/05/04 04:58:34;;;;;;;13.90;11.10;;;13.50;99.90;;;;;;5115600;28;20213;-66
2022/05/04 05:01:02;;;;;;;14.63;12.05;;;13.50;99.90;;;;;;5115436;28;20291;-66
2022/05/04 05:03:29;;;;;;;14.10;11.10;;;13.50;99.90;;;;;;5115125;28;20667;-67
2022/05/04 05:05:56;;;;;;;13.63;11.68;;;13.60;99.90;;;;;;5115553;28;20221;-66
2022/05/04 05:08:23;;;;;;;13.38;11.80;;;13.70;99.90;;;;;;5115539;28;20201;-67
2022/05/04 05:10:49;;;;;;;12.50;11.20;;;13.80;99.90;;;;;;5115566;28;20293;-66
2022/05/04 05:13:16;;;;;;;11.95;10.70;;;13.80;99.90;;;;;;5115170;28;20276;-67
2022/05/04 05:18:29;;;;;;;15.75;11.50;;;13.80;99.90;;;;;;5115531;28;20199;-66
2022/05/04 05:20:56;;;;;;;13.40;11.50;;;13.80;99.90;;;;;;5115744;28;20201;-67
2022/05/04 05:23:23;;;;;;;13.32;11.93;;;13.80;99.90;;;;;;5115103;28;20224;-66
2022/05/04 05:25:50;;;;;;;12.55;11.25;;;13.70;99.90;;;;;;5114869;28;20217;-67
2022/05/04 05:28:17;;;;;;;15.75;12.38;;;13.60;99.90;;;;;;5115253;28;20293;-67
2022/05/04 05:30:44;;;;;;;12.20;10.85;;;13.60;99.90;;;;;;5115060;28;20208;-66
2022/05/04 05:33:11;;;;;;;13.60;11.55;;;13.70;99.90;;;;;;5117544;28;20201;-67
2022/05/04 05:35:39;;;;;;;14.23;11.85;;;13.60;99.90;;;;;;5119565;28;20308;-66
2022/05/04 05:38:07;;;;;;;13.63;12.23;;;13.50;99.90;;;;;;5119893;28;20201;-66
2022/05/04 05:40:33;;;;;;;13.20;11.80;;;13.50;99.90;;;;;;5119606;28;20205;-66
2022/05/04 05:43:03;;;;;;;15.60;12.70;;;13.50;99.90;;;;;;5119310;28;20308;-66
2022/05/04 05:45:30;;;;;;;20.25;12.82;;;13.70;99.90;;;;;;5119610;28;20221;-66
2022/05/04 05:47:57;;;;;;;16.13;12.90;;;13.70;99.90;;;;;;5119301;28;20208;-66
2022/05/04 05:50:24;;;;;;;14.88;12.32;;;13.70;99.90;;;;;;5118944;28;20198;-66
2022/05/04 05:52:53;;;;;;;15.27;13.10;;;13.60;99.90;;;;;;5119506;28;20567;-66
2022/05/04 05:55:20;;;;;;;15.18;13.23;;;13.60;99.90;;;;;;5118987;28;20222;-66
2022/05/04 05:57:47;;;;;;;15.55;13.05;;;13.60;99.90;;;;;;5119008;28;20300;-66
2022/05/04 06:00:15;;;;;;;16.08;12.38;;;13.60;99.90;;;;;;5118720;28;20209;-66
2022/05/04 06:02:42;;;;;;;14.27;11.50;;;13.60;99.90;;;;;;5119059;28;20227;-66
2022/05/04 06:05:09;;;;;;;14.75;11.65;;;13.60;99.90;;;;;;5118818;28;20699;-66
2022/05/04 06:07:37;;;;;;;13.20;11.07;;;13.50;99.90;;;;;;5118640;28;20212;-66
2022/05/04 06:10:06;;;;;;;12.07;10.32;;;13.70;99.90;;;;;;5118954;28;20668;-66
2022/05/04 06:12:33;;;;;;;12.82;11.20;;;13.90;99.90;;;;;;5118815;28;20201;-66
2022/05/04 06:15:01;;;;;;;13.38;11.98;;;13.90;99.90;;;;;;5118194;28;20212;-67
2022/05/04 06:17:28;;;;;;;13.13;11.35;;;13.90;99.90;;;;;;5119313;28;20189;-66
2022/05/04 06:19:55;;;;;;;17.35;12.98;;;13.80;99.90;;;;;;5118994;28;20767;-66
2022/05/04 06:22:22;;;;;;;16.08;12.80;;;13.70;99.90;;;;;;5119050;28;20221;-66
2022/05/04 06:24:48;;;;;;;13.30;11.90;;;13.70;99.90;;;;;;5118338;28;20738;-66
2022/05/04 06:27:17;;;;;;;14.77;11.73;;;13.70;99.90;;;;;;5118840;28;20299;-66
2022/05/04 06:35:23;;;;;;;12.98;11.13;;;13.70;99.90;;;;;;5035328;28;20216;-66
2022/05/04 06:37:50;;;;;;;12.10;10.40;;;13.70;99.90;;;;;;5099040;28;20197;-66
2022/05/04 06:40:17;;;;;;;13.98;10.73;;;13.80;99.90;;;;;;5118352;28;20614;-66
2022/05/04 06:42:45;;;;;;;14.75;10.02;;;13.80;99.90;;;;;;5118239;28;20223;-66
2022/05/04 06:45:12;;;;;;;12.65;10.73;;;13.80;99.90;;;;;;5117191;28;20553;-66
2022/05/04 06:47:39;;;;;;;13.13;11.60;;;13.90;99.90;;;;;;5117743;28;20262;-66
2022/05/04 06:50:06;;;;;;;10.85;9.43;;;13.90;99.90;;;;;;5118409;28;20242;-66
2022/05/04 06:52:34;;;;;;;12.20;10.80;;;14.10;99.90;;;;;;5118714;28;20224;-66
2022/05/04 06:55:00;;;;;;;11.13;9.57;;;14.10;99.90;;;;;;5118393;28;20265;-66
2022/05/04 06:57:27;;;;;;;12.40;10.00;;;14.10;99.90;;;;;;5117425;28;20211;-66
2022/05/04 06:59:57;;;;;;;12.80;10.43;;;14.20;99.90;;;;;;5117843;28;20198;-66
2022/05/04 07:02:24;;;;;;;13.73;10.88;;;14.20;99.90;;;;;;5117928;28;20557;-66
2022/05/04 07:04:51;;;;;;;11.60;10.40;;;14.20;99.90;;;;;;5117928;28;20206;-66
2022/05/04 07:07:18;;;;;;;13.23;11.25;;;14.30;99.90;;;;;;5117517;28;20198;-66
2022/05/04 07:09:45;;;;;;;12.85;11.50;;;14.40;99.90;;;;;;5117619;28;20229;-66
2022/05/04 07:12:12;;;;;;;14.88;11.68;;;14.30;99.90;;;;;;5117402;28;20285;-67
2022/05/04 07:14:38;;;;;;;14.82;12.02;;;14.40;99.90;;;;;;5117543;28;20199;-66
2022/05/04 07:17:07;;;;;;;14.00;11.48;;;14.40;99.90;;;;;;5117320;28;20289;-66
2022/05/04 07:19:33;;;;;;;12.23;10.80;;;14.50;99.90;;;;;;5117463;28;20203;-67
2022/05/04 07:22:00;;;;;;;11.82;10.55;;;14.70;99.90;;;;;;5117363;28;20228;-66
2022/05/04 07:24:27;;;;;;;11.77;10.40;;;14.90;99.90;;;;;;5116965;28;20212;-67
2022/05/04 07:26:54;;;;;;;12.32;10.65;;;15.10;99.90;;;;;;5117464;28;20314;-66
2022/05/04 07:29:21;;;;;;;11.70;10.50;;;15.30;99.90;;;;;;5117242;28;20243;-66
2022/05/04 07:31:48;;;;;;;10.98;9.85;;;15.40;99.90;;;;;;5116639;28;20218;-66
2022/05/04 07:34:17;;;;;;;12.25;9.90;;;15.40;99.90;;;;;;5117187;28;20211;-66
2022/05/04 07:36:44;;;;;;;10.23;9.13;;;15.60;99.90;;;;;;5116816;28;20224;-67
2022/05/04 07:42:21;;;;;;;13.82;10.73;;;15.50;99.90;;;;;;5117177;28;20625;-66
2022/05/04 07:44:44;;;;;;;11.40;10.20;;;15.40;99.90;;;;;;5116625;28;20297;-67
2022/05/04 07:47:11;;;;;;;11.00;9.60;;;15.50;99.90;;;;;;5116830;28;20230;-66
2022/05/04 07:49:40;;;;;;;11.18;10.02;;;15.70;99.90;;;;;;5116953;28;20215;-67
2022/05/04 07:52:07;;;;;;;10.85;9.75;;;15.80;99.90;;;;;;5116721;28;20654;-67
2022/05/04 07:54:34;;;;;;;12.00;10.20;;;15.90;99.90;;;;;;5116388;28;20677;-67
2022/05/04 07:57:00;;;;;;;11.00;9.95;;;15.90;99.90;;;;;;5115392;28;20316;-67
2022/05/04 07:59:27;;;;;;;10.93;9.30;;;16.10;99.90;;;;;;5116370;28;20204;-67
2022/05/04 08:04:39;;;;;;;10.52;9.43;;;16.10;99.90;;;;;;5116253;28;20203;-67
2022/05/04 08:07:06;;;;;;;12.93;9.98;;;16.20;99.90;;;;;;5116124;28;20228;-67
2022/05/04 08:09:36;;;;;;;11.70;8.75;;;16.30;99.90;;;;;;5116311;28;20211;-67
2022/05/04 08:12:03;;;;;;;12.32;9.75;;;16.40;99.90;;;;;;5116312;28;20202;-67
2022/05/04 08:14:30;;;;;;;10.98;9.55;;;16.40;99.90;;;;;;5116059;28;20209;-66
2022/05/04 08:16:57;;;;;;;11.60;9.93;;;16.40;99.90;;;;;;5115661;28;20243;-66
2022/05/04 08:19:24;;;;;;;9.38;8.32;;;16.50;99.90;;;;;;5116359;28;20629;-67
2022/05/04 08:21:52;;;;;;;10.05;8.45;;;16.30;99.90;;;;;;5115851;28;20197;-67
2022/05/04 08:24:19;;;;;;;7.80;7.10;;;16.30;99.90;;;;;;5115845;28;20294;-66
2022/05/04 08:26:45;;;;;;;6.72;6.05;;;16.30;99.90;;;;;;5115816;28;20312;-67
2022/05/04 08:29:12;;;;;;;6.82;6.00;;;16.40;99.90;;;;;;5115885;28;20272;-66
2022/05/04 08:31:39;;;;;;;5.95;5.45;;;16.40;99.90;;;;;;5115906;28;20580;-67
2022/05/04 08:34:06;;;;;;;7.18;6.10;;;16.30;99.90;;;;;;5115524;28;20296;-67
2022/05/04 08:36:36;;;;;;;7.55;5.97;;;16.30;99.90;;;;;;5115495;28;20243;-67
2022/05/04 08:39:05;;;;;;;6.97;6.38;;;16.30;99.90;;;;;;5115647;28;20209;-67
2022/05/04 08:41:32;;;;;;;6.68;6.07;;;16.10;99.90;;;;;;5115618;28;20543;-67
2022/05/04 08:44:00;;;;;;;7.90;6.55;;;15.90;99.90;;;;;;5115499;28;20312;-67
2022/05/04 08:46:28;;;;;;;6.55;5.90;;;16.00;99.90;;;;;;5105849;28;20240;-67
2022/05/04 08:48:55;;;;;;;6.32;5.72;;;16.00;99.90;;;;;;5099513;28;20216;-67
2022/05/04 08:51:22;;;;;;;7.43;6.38;;;16.00;99.90;;;;;;5094067;28;20234;-67
2022/05/04 08:53:50;;;;;;;6.10;5.57;;;16.00;99.90;;;;;;5093522;28;20202;-67
2022/05/04 08:56:18;;;;;;;6.40;5.80;;;16.00;99.90;;;;;;5093238;28;20275;-68
2022/05/04 08:58:45;;;;;;;6.90;6.13;;;16.00;99.90;;;;;;5092903;28;20206;-67
2022/05/04 09:01:13;;;;;;;6.75;6.18;;;15.90;99.90;;;;;;5093735;28;20205;-67
2022/05/04 09:03:40;;;;;;;9.85;6.85;;;15.90;99.90;;;;;;5093578;28;20228;-66
2022/05/04 09:06:07;;;;;;;8.27;6.65;;;15.80;99.90;;;;;;5093718;28;20228;-66
2022/05/04 09:08:53;;;;;;;8.02;6.90;;;15.70;99.90;;;;;;5093527;28;20211;-67
2022/05/04 09:11:23;;;;;;;8.57;7.20;;;15.70;99.90;;;;;;5092247;28;20208;-68
2022/05/04 09:13:50;;;;;;;8.98;6.55;;;15.60;99.90;;;;;;5092481;28;20204;-68
2022/05/04 09:16:26;;;;;;;7.18;6.50;;;15.50;99.90;;;;;;5092680;28;20235;-67
2022/05/04 09:18:54;;;;;;;8.00;6.93;;;15.50;99.90;;;;;;5092981;28;20251;-67
2022/05/04 09:21:22;;;;;;;7.53;6.78;;;15.60;99.90;;;;;;5092721;28;20204;-67
2022/05/04 09:23:53;;;;;;;7.53;6.75;;;15.50;99.90;;;;;;5092745;28;20221;-68
2022/05/04 09:26:22;;;;;;;8.23;7.43;;;15.60;99.90;;;;;;5092357;28;20247;-69
2022/05/04 09:28:51;;;;;;;7.95;6.97;;;15.60;99.90;;;;;;5092408;28;20680;-69
2022/05/04 09:31:18;;;;;;;7.60;6.90;;;15.50;99.90;;;;;;5092595;28;20219;-68
2022/05/04 09:33:53;;;;;;;7.88;7.07;;;15.50;99.90;;;;;;5092480;28;20607;-68
2022/05/04 09:36:31;;;;;;;8.57;7.30;;;15.60;99.90;;;;;;5092195;28;20315;-69
2022/05/04 09:47:20;;;;;;;11.55;7.97;;;16.00;99.90;;;;;;5092402;28;20220;-68
2022/05/04 09:49:48;;;;;;;9.15;8.25;;;16.10;99.90;;;;;;5092205;28;20201;-68
2022/05/04 09:52:16;;;;;;;11.40;9.15;;;16.30;99.90;;;;;;5092341;28;20244;-68
2022/05/04 09:54:45;;;;;;;9.65;8.65;;;16.60;99.90;;;;;;5092100;28;20690;-68
2022/05/04 09:57:14;;;;;;;8.40;7.60;;;17.00;99.90;;;;;;5091920;28;20208;-68
2022/05/04 09:59:43;;;;;;;9.40;8.50;;;17.50;99.90;;;;;;5092319;28;20210;-68
2022/05/04 10:02:10;;;;;;;9.27;8.38;;;17.80;99.90;;;;;;5092191;28;20575;-68
2022/05/04 10:04:38;;;;;;;12.00;8.85;;;18.10;99.90;;;;;;5091953;28;20588;-68
2022/05/04 10:07:05;;;;;;;9.73;8.83;;;18.40;99.90;;;;;;5092195;28;20226;-68
2022/05/04 10:09:32;;;;;;;9.80;8.80;;;19.00;99.90;;;;;;5091872;28;20446;-68
2022/05/04 10:12:01;;;;;;;12.03;9.90;;;19.30;99.90;;;;;;5091877;28;20452;-68
2022/05/04 10:14:30;;;;;;;10.73;9.37;;;19.40;99.90;;;;;;5091599;28;20927;-68
2022/05/04 10:17:05;;;;;;;11.73;10.47;;;19.00;99.90;;;;;;5091896;28;20480;-68
2022/05/04 10:19:51;;;;;;;12.35;11.05;;;19.00;99.90;;;;;;5093336;28;20439;-68
2022/05/04 10:22:22;;;;;;;11.90;10.32;;;18.80;99.90;;;;;;5095496;28;20191;-68
2022/05/04 10:24:49;;;;;;;10.82;9.82;;;18.80;99.90;;;;;;5095524;28;20195;-68
2022/05/04 10:27:18;;;;;;;12.95;11.02;;;18.80;99.90;;;;;;5096073;28;20203;-68
2022/05/04 10:32:36;;;;;;;13.73;12.23;;;18.40;99.90;;;;;;5095292;28;20678;-69
2022/05/04 10:35:23;;;;;;;14.00;12.70;;;18.10;99.90;;;;;;5095293;28;20325;-69
2022/05/04 10:38:17;;;;;;;13.77;12.25;;;17.90;99.90;;;;;;5095701;28;20206;-68
2022/05/04 10:40:47;;;;;;;15.18;13.57;;;17.80;99.90;;;;;;5095422;28;20285;-69
2022/05/04 10:43:16;;;;;;;12.82;11.52;;;17.90;99.90;;;;;;5095405;28;20671;-69
2022/05/04 10:45:45;;;;;;;13.97;12.57;;;18.70;99.90;;;;;;5095777;28;20253;-69
2022/05/04 10:48:22;;;;;;;15.70;13.10;;;18.80;99.90;;;;;;5095132;28;20949;-68
2022/05/04 10:50:50;;;;;;;13.23;11.83;;;19.10;99.90;;;;;;5095441;28;20463;-69
2022/05/04 10:53:37;;;;;;;12.33;11.10;;;20.20;99.90;;;;;;5095715;28;20859;-69
2022/05/04 10:56:06;;;;;;;11.33;10.23;;;21.20;99.90;;;;;;5094868;28;20457;-69
2022/05/04 10:58:37;;;;;;;11.37;10.20;;;22.10;99.90;;;;;;5094927;28;20445;-69
2022/05/04 11:01:14;;;;;;;9.70;8.90;;;22.90;99.40;;;;;;5095040;28;20525;-69
2022/05/04 11:03:56;;;;;;;11.00;9.90;;;22.30;96.50;;;;;;5094484;28;20480;-68
2022/05/04 11:06:25;;;;;;;11.00;9.97;;;21.70;96.80;;;;;;5094657;28;20959;-69
2022/05/04 11:08:54;;;;;;;12.13;11.03;;;21.30;99.60;;;;;;5095224;28;20875;-68
2022/05/04 11:11:22;;;;;;;13.10;11.80;;;21.10;99.10;;;;;;5094965;28;20448;-68
2022/05/04 11:13:49;;;;;;;12.60;11.30;;;20.80;99.90;;;;;;5094652;28;20933;-69
2022/05/04 11:16:21;;;;;;;12.20;10.90;;;20.70;99.90;;;;;;5094233;28;20481;-69
2022/05/04 11:18:48;;;;;;;11.63;10.43;;;20.60;99.90;;;;;;5094845;28;20458;-68
2022/05/04 11:21:16;;;;;;;9.90;8.90;;;20.40;99.90;;;;;;5094705;28;20453;-69
2022/05/04 11:23:47;;;;;;;11.73;10.43;;;20.50;99.90;;;;;;5094265;28;20844;-69
2022/05/04 11:26:22;;;;;;;9.20;8.30;;;20.20;99.90;;;;;;5094395;28;20470;-69
2022/05/04 11:28:50;;;;;;;10.30;9.10;;;20.20;99.90;;;;;;5094438;28;20454;-69
2022/05/04 11:31:19;;;;;;;8.80;8.00;;;20.00;99.90;;;;;;5094450;28;20500;-69
2022/05/04 11:33:47;;;;;;;8.20;7.40;;;19.80;98.50;;;;;;5094262;28;20444;-69
2022/05/04 11:36:18;;;;;;;7.70;7.00;;;19.40;99.90;;;;;;5094297;28;20477;-69
2022/05/04 11:38:45;;;;;;;7.43;6.33;;;19.40;99.90;;;;;;5094282;28;20449;-69
2022/05/04 11:41:12;;;;;;;7.07;6.23;;;19.40;99.90;;;;;;5094177;28;20456;-69
2022/05/04 11:43:39;;;;;;;7.30;6.70;;;19.60;99.90;;;;;;5094069;28;20479;-68
2022/05/04 11:46:09;;;;;;;7.33;6.60;;;19.90;99.60;;;;;;5094128;28;20469;-68
2022/05/04 11:48:38;;;;;;;7.57;6.87;;;19.80;99.90;;;;;;5094173;28;20491;-69
2022/05/04 11:51:05;;;;;;;6.23;5.73;;;19.60;99.90;;;;;;5093984;28;20849;-68
2022/05/04 11:53:34;;;;;;;7.30;6.70;;;19.60;98.90;;;;;;5093955;28;20533;-68
2022/05/04 11:56:03;;;;;;;7.23;6.53;;;19.70;99.90;;;;;;5093643;28;20561;-69
2022/05/04 11:58:30;;;;;;;6.90;6.20;;;19.60;99.90;;;;;;5093926;28;20456;-68
2022/05/04 12:00:58;;;;;;;7.30;6.60;;;19.50;99.50;;;;;;5094186;28;20449;-68
2022/05/04 12:03:26;;;;;;;7.90;7.10;;;19.60;98.10;;;;;;5093368;28;20488;-68
2022/05/04 12:05:56;;;;;;;6.93;6.33;;;19.70;97.80;;;;;;5093687;28;20514;-72
2022/05/04 12:08:24;;;;;;;8.03;7.07;;;19.80;98.80;;;;;;5093572;28;20445;-69
2022/05/04 12:10:51;;;;;;;7.07;6.30;;;20.00;99.90;;;;;;5093848;28;20451;-69
2022/05/04 12:13:23;;;;;;;7.00;6.40;;;20.30;98.50;;;;;;5093358;28;20523;-69
2022/05/04 12:15:52;;;;;;;6.97;6.30;;;20.70;99.40;;;;;;5093215;28;20471;-69
2022/05/04 12:18:19;;;;;;;5.90;5.40;;;21.00;96.80;;;;;;5093578;28;20850;-69
2022/05/04 12:20:46;;;;;;;7.40;6.43;;;21.30;97.90;;;;;;5093295;28;20454;-69
2022/05/04 12:23:15;;;;;;;7.90;7.10;;;21.40;98.00;;;;;;5093381;28;20466;-69
2022/05/04 12:25:43;;;;;;;7.80;7.00;;;21.40;93.80;;;;;;5093489;28;20470;-68
2022/05/04 12:28:11;;;;;;;7.13;6.50;;;21.30;93.70;;;;;;5093356;28;20464;-68
2022/05/04 12:33:30;;;;;;;7.30;6.60;;;21.40;95.60;;;;;;5092959;28;20427;-68
2022/05/04 12:36:00;;;;;;;7.50;6.80;;;21.30;96.90;;;;;;5093295;28;20982;-69
2022/05/04 12:38:29;;;;;;;7.67;6.97;;;21.20;96.60;;;;;;5093393;28;20927;-68
2022/05/04 12:40:57;;;;;;;7.73;6.97;;;21.20;96.60;;;;;;5093152;28;20448;-68
2022/05/04 12:43:24;;;;;;;7.50;6.70;;;21.20;95.80;;;;;;5092246;28;21009;-69
2022/05/04 12:45:54;;;;;;;7.37;6.67;;;21.30;96.00;;;;;;5093032;28;20464;-69
2022/05/04 12:48:25;;;;;;;7.27;6.43;;;21.30;95.10;;;;;;5093267;28;20446;-68
2022/05/04 12:50:53;;;;;;;6.70;6.10;;;21.30;94.30;;;;;;5093403;28;20447;-69
2022/05/04 12:53:20;;;;;;;7.10;6.40;;;21.40;93.60;;;;;;5092827;28;20841;-69
2022/05/04 12:58:32;;;;;;;6.63;6.10;;;21.50;93.90;;;;;;5092859;28;20682;-69
2022/05/04 13:00:59;;;;;;;6.97;6.37;;;21.50;93.90;;;;;;5093121;28;20455;-69
2022/05/04 13:03:26;;;;;;;6.20;5.70;;;21.30;92.70;;;;;;5092503;28;20453;-69
2022/05/04 13:05:53;;;;;;;7.00;6.30;;;21.10;95.70;;;;;;5092976;28;20546;-68
2022/05/04 13:08:20;;;;;;;6.20;5.70;;;21.10;93.20;;;;;;5092467;28;20447;-68
2022/05/04 13:10:49;;;;;;;5.57;5.07;;;21.00;91.10;;;;;;5092642;28;20447;-68
2022/05/04 13:13:18;;;;;;;5.73;5.23;;;21.00;89.70;;;;;;5092387;28;20455;-69
2022/05/04 13:15:45;;;;;;;5.47;5.03;;;20.90;89.80;;;;;;5092749;28;20475;-68
2022/05/04 13:18:12;;;;;;;5.30;4.90;;;20.90;92.30;;;;;;5092615;28;20444;-69